Hanjin Sanfrancisco — 3FXR — position and weather

sailwx.info

Track history (hours):
 
Tides and Currents Weather Stations Pressure Air Temp Water Temp Dewpoint Dewpoint Depression Visibility Wind Speed Wind Dir Waves Ship Positions

Hanjin Sanfrancisco

Last reported at 2017-Oct-18 11:32 UTC. Time now 2017-Oct-18 15:19 UTC.
Position N 41°31' E 031°54'.

Length 289 m; draft 11.1 m.

Type: Cargo ship. MMSI: 351989000.

Date/timePositionNaut miles runAvg speedWind from/ knotsBaromVisibWave heightAir tempDewpointWater temp
2017-Oct-18 11:32N 41°31' E 031°54'0 0.0
2017-Oct-18 11:26N 41°31' E 031°54'135 4.7
2017-Oct-17 06:51N 40°59' E 028°60'3 9.4
2017-Oct-17 06:31N 40°56' E 028°59'611.1
2017-Oct-17 06:00N 40°52' E 028°53'225 8.2
2017-Oct-16 02:40N 38°46' E 024°51'211.8
2017-Oct-16 02:29N 38°44' E 024°50'508 9.8
2017-Oct-13 22:48N 35°54' E 014°49'2 5.8
2017-Oct-13 22:29N 35°53' E 014°47'0 0.1
2017-Oct-13 21:57N 35°53' E 014°47'0 0.0
2017-Oct-13 21:27N 35°53' E 014°47'0 0.0
2017-Oct-13 21:00N 35°53' E 014°47'0 0.0
2017-Oct-13 20:27N 35°53' E 014°47'0 0.0
2017-Oct-13 20:00N 35°53' E 014°47'0 0.0
2017-Oct-13 19:18N 35°53' E 014°47'0 0.0
2017-Oct-13 18:57N 35°53' E 014°47'0 0.0
2017-Oct-13 14:27N 35°53' E 014°47'1 2.4
2017-Oct-13 14:00N 35°54' E 014°45'611.5
2017-Oct-13 13:30N 35°58' E 014°41'612.0
2017-Oct-13 13:00N 36°01' E 014°34'612.7
2017-Oct-13 12:30N 36°05' E 014°28'612.6
2017-Oct-13 12:00N 36°09' E 014°22'612.4
2017-Oct-13 11:30N 36°12' E 014°15'612.4
2017-Oct-13 11:00N 36°15' E 014°08'612.5
2017-Oct-13 10:30N 36°17' E 014°01'612.5
2017-Oct-13 10:00N 36°20' E 013°54'612.3
2017-Oct-13 09:30N 36°22' E 013°47'51812.7
2017-Oct-11 16:39N 37°04' E 003°03'  
Track history (hours):
 
Tides and Currents Weather Stations Pressure Air Temp Water Temp Dewpoint Dewpoint Depression Visibility Wind Speed Wind Dir Waves Ship Positions

Hanjin Sanfrancisco

Last reported at 2017-Oct-18 11:32 UTC. Time now 2017-Oct-18 15:19 UTC.
Position N 41°31' E 031°54'.

Length 289 m; draft 11.1 m.

Type: Cargo ship. MMSI: 351989000.

Date/timePositionNaut miles runAvg speedWind from/ knotsBaromVisibWave heightAir tempDewpointWater temp
2017-Oct-18 11:32N 41°31' E 031°54'0 0.0
2017-Oct-18 11:26N 41°31' E 031°54'135 4.7
2017-Oct-17 06:51N 40°59' E 028°60'3 9.4
2017-Oct-17 06:31N 40°56' E 028°59'611.1
2017-Oct-17 06:00N 40°52' E 028°53'225 8.2
2017-Oct-16 02:40N 38°46' E 024°51'211.8
2017-Oct-16 02:29N 38°44' E 024°50'508 9.8
2017-Oct-13 22:48N 35°54' E 014°49'2 5.8
2017-Oct-13 22:29N 35°53' E 014°47'0 0.1
2017-Oct-13 21:57N 35°53' E 014°47'0 0.0
2017-Oct-13 21:27N 35°53' E 014°47'0 0.0
2017-Oct-13 21:00N 35°53' E 014°47'0 0.0
2017-Oct-13 20:27N 35°53' E 014°47'0 0.0
2017-Oct-13 20:00N 35°53' E 014°47'0 0.0
2017-Oct-13 19:18N 35°53' E 014°47'0 0.0
2017-Oct-13 18:57N 35°53' E 014°47'0 0.0
2017-Oct-13 14:27N 35°53' E 014°47'1 2.4
2017-Oct-13 14:00N 35°54' E 014°45'611.5
2017-Oct-13 13:30N 35°58' E 014°41'612.0
2017-Oct-13 13:00N 36°01' E 014°34'612.7
2017-Oct-13 12:30N 36°05' E 014°28'612.6
2017-Oct-13 12:00N 36°09' E 014°22'612.4
2017-Oct-13 11:30N 36°12' E 014°15'612.4
2017-Oct-13 11:00N 36°15' E 014°08'612.5
2017-Oct-13 10:30N 36°17' E 014°01'612.5
2017-Oct-13 10:00N 36°20' E 013°54'612.3
2017-Oct-13 09:30N 36°22' E 013°47'51812.7
2017-Oct-11 16:39N 37°04' E 003°03'  

Dump ship's entire track history